sensor_id;sensor_type;location;lat;lon;timestamp;P1;durP1;ratioP1;P2;durP2;ratioP2
51475;SDS011;37554;50.362;7.568;2023-06-24T00:01:24;2.13;;;2.03;;
51475;SDS011;37554;50.362;7.568;2023-06-24T00:03:50;1.83;;;1.73;;
51475;SDS011;37554;50.362;7.568;2023-06-24T00:06:18;2.13;;;2.00;;
51475;SDS011;37554;50.362;7.568;2023-06-24T00:08:45;2.28;;;2.08;;
51475;SDS011;37554;50.362;7.568;2023-06-24T00:11:11;2.30;;;2.10;;
51475;SDS011;37554;50.362;7.568;2023-06-24T00:13:38;1.90;;;1.80;;
51475;SDS011;37554;50.362;7.568;2023-06-24T00:16:04;1.88;;;1.75;;
51475;SDS011;37554;50.362;7.568;2023-06-24T00:18:34;2.70;;;2.10;;
51475;SDS011;37554;50.362;7.568;2023-06-24T00:21:00;2.22;;;2.03;;
51475;SDS011;37554;50.362;7.568;2023-06-24T00:23:27;2.20;;;1.98;;
51475;SDS011;37554;50.362;7.568;2023-06-24T00:25:54;2.30;;;2.10;;
51475;SDS011;37554;50.362;7.568;2023-06-24T00:28:20;2.05;;;1.85;;
51475;SDS011;37554;50.362;7.568;2023-06-24T00:30:47;2.00;;;1.90;;
51475;SDS011;37554;50.362;7.568;2023-06-24T00:33:13;2.50;;;1.90;;
51475;SDS011;37554;50.362;7.568;2023-06-24T00:35:39;1.80;;;1.70;;
51475;SDS011;37554;50.362;7.568;2023-06-24T00:38:05;2.33;;;1.98;;
51475;SDS011;37554;50.362;7.568;2023-06-24T00:40:31;2.70;;;2.05;;
51475;SDS011;37554;50.362;7.568;2023-06-24T00:42:57;2.45;;;1.77;;
51475;SDS011;37554;50.362;7.568;2023-06-24T00:45:23;1.80;;;1.70;;
51475;SDS011;37554;50.362;7.568;2023-06-24T00:47:49;2.10;;;2.00;;
51475;SDS011;37554;50.362;7.568;2023-06-24T00:50:16;2.90;;;2.03;;
51475;SDS011;37554;50.362;7.568;2023-06-24T00:52:42;2.78;;;2.08;;
51475;SDS011;37554;50.362;7.568;2023-06-24T00:55:09;2.78;;;2.00;;
51475;SDS011;37554;50.362;7.568;2023-06-24T00:57:37;2.13;;;1.88;;
51475;SDS011;37554;50.362;7.568;2023-06-24T01:00:04;2.58;;;2.30;;
51475;SDS011;37554;50.362;7.568;2023-06-24T01:02:42;2.45;;;2.25;;
51475;SDS011;37554;50.362;7.568;2023-06-24T01:05:08;2.50;;;2.20;;
51475;SDS011;37554;50.362;7.568;2023-06-24T01:07:36;2.95;;;2.63;;
51475;SDS011;37554;50.362;7.568;2023-06-24T01:10:03;2.22;;;2.03;;
51475;SDS011;37554;50.362;7.568;2023-06-24T01:12:35;1.92;;;1.77;;
51475;SDS011;37554;50.362;7.568;2023-06-24T01:15:04;2.28;;;2.10;;
51475;SDS011;37554;50.362;7.568;2023-06-24T01:20:15;2.97;;;1.80;;
51475;SDS011;37554;50.362;7.568;2023-06-24T01:22:59;2.47;;;2.00;;
51475;SDS011;37554;50.362;7.568;2023-06-24T01:37:28;2.45;;;2.25;;
51475;SDS011;37554;50.362;7.568;2023-06-24T01:42:41;2.20;;;2.00;;
51475;SDS011;37554;50.362;7.568;2023-06-24T01:45:15;2.10;;;2.00;;
51475;SDS011;37554;50.362;7.568;2023-06-24T01:47:47;1.70;;;1.60;;
51475;SDS011;37554;50.362;7.568;2023-06-24T01:50:19;1.98;;;1.88;;
51475;SDS011;37554;50.362;7.568;2023-06-24T01:52:47;2.20;;;2.00;;
51475;SDS011;37554;50.362;7.568;2023-06-24T01:55:17;2.30;;;2.10;;
51475;SDS011;37554;50.362;7.568;2023-06-24T01:57:45;2.75;;;2.10;;
51475;SDS011;37554;50.362;7.568;2023-06-24T02:00:13;2.47;;;2.30;;
51475;SDS011;37554;50.362;7.568;2023-06-24T02:02:40;2.35;;;2.20;;
51475;SDS011;37554;50.362;7.568;2023-06-24T02:05:07;3.15;;;1.67;;
51475;SDS011;37554;50.362;7.568;2023-06-24T02:07:33;2.10;;;1.90;;
51475;SDS011;37554;50.362;7.568;2023-06-24T02:10:00;2.25;;;2.00;;
51475;SDS011;37554;50.362;7.568;2023-06-24T02:12:28;2.13;;;1.92;;
51475;SDS011;37554;50.362;7.568;2023-06-24T02:14:55;3.15;;;2.20;;
51475;SDS011;37554;50.362;7.568;2023-06-24T02:17:21;1.95;;;1.83;;
51475;SDS011;37554;50.362;7.568;2023-06-24T02:19:50;1.83;;;1.73;;
51475;SDS011;37554;50.362;7.568;2023-06-24T02:22:17;2.40;;;2.20;;
51475;SDS011;37554;50.362;7.568;2023-06-24T02:24:44;1.83;;;1.73;;
51475;SDS011;37554;50.362;7.568;2023-06-24T02:27:12;2.15;;;1.95;;
51475;SDS011;37554;50.362;7.568;2023-06-24T02:29:38;1.90;;;1.80;;
51475;SDS011;37554;50.362;7.568;2023-06-24T02:32:05;2.05;;;1.92;;
51475;SDS011;37554;50.362;7.568;2023-06-24T02:34:31;2.22;;;2.03;;
51475;SDS011;37554;50.362;7.568;2023-06-24T02:36:57;2.40;;;2.20;;
51475;SDS011;37554;50.362;7.568;2023-06-24T02:39:23;2.17;;;2.00;;
51475;SDS011;37554;50.362;7.568;2023-06-24T02:41:49;2.10;;;2.00;;
51475;SDS011;37554;50.362;7.568;2023-06-24T02:44:15;1.90;;;1.80;;
51475;SDS011;37554;50.362;7.568;2023-06-24T02:46:42;2.00;;;1.90;;
51475;SDS011;37554;50.362;7.568;2023-06-24T02:49:09;2.50;;;2.30;;
51475;SDS011;37554;50.362;7.568;2023-06-24T02:51:38;3.40;;;1.90;;
51475;SDS011;37554;50.362;7.568;2023-06-24T02:54:05;1.98;;;1.85;;
51475;SDS011;37554;50.362;7.568;2023-06-24T02:56:31;2.30;;;2.10;;
51475;SDS011;37554;50.362;7.568;2023-06-24T02:58:58;2.67;;;2.15;;
51475;SDS011;37554;50.362;7.568;2023-06-24T03:01:24;2.65;;;2.05;;
51475;SDS011;37554;50.362;7.568;2023-06-24T03:03:55;2.58;;;2.38;;
51475;SDS011;37554;50.362;7.568;2023-06-24T03:06:21;3.75;;;2.03;;
51475;SDS011;37554;50.362;7.568;2023-06-24T03:08:50;1.70;;;1.60;;
51475;SDS011;37554;50.362;7.568;2023-06-24T03:11:17;2.30;;;2.10;;
51475;SDS011;37554;50.362;7.568;2023-06-24T03:13:43;2.83;;;2.10;;
51475;SDS011;37554;50.362;7.568;2023-06-24T03:16:09;2.67;;;2.22;;
51475;SDS011;37554;50.362;7.568;2023-06-24T03:18:43;2.90;;;2.05;;
51475;SDS011;37554;50.362;7.568;2023-06-24T03:21:09;2.20;;;2.00;;
51475;SDS011;37554;50.362;7.568;2023-06-24T03:23:35;2.75;;;1.90;;
51475;SDS011;37554;50.362;7.568;2023-06-24T03:26:01;2.20;;;2.10;;
51475;SDS011;37554;50.362;7.568;2023-06-24T03:28:28;1.90;;;1.80;;
51475;SDS011;37554;50.362;7.568;2023-06-24T03:30:57;2.05;;;1.95;;
51475;SDS011;37554;50.362;7.568;2023-06-24T03:33:23;2.25;;;2.05;;
51475;SDS011;37554;50.362;7.568;2023-06-24T03:35:49;2.30;;;2.10;;
51475;SDS011;37554;50.362;7.568;2023-06-24T03:38:16;2.78;;;1.80;;
51475;SDS011;37554;50.362;7.568;2023-06-24T03:40:41;2.30;;;2.10;;
51475;SDS011;37554;50.362;7.568;2023-06-24T03:43:08;2.38;;;2.17;;
51475;SDS011;37554;50.362;7.568;2023-06-24T03:45:34;2.50;;;2.20;;
51475;SDS011;37554;50.362;7.568;2023-06-24T03:48:00;2.33;;;2.13;;
51475;SDS011;37554;50.362;7.568;2023-06-24T03:50:25;2.25;;;2.00;;
51475;SDS011;37554;50.362;7.568;2023-06-24T03:52:51;3.50;;;2.30;;
51475;SDS011;37554;50.362;7.568;2023-06-24T03:55:16;3.25;;;2.05;;
51475;SDS011;37554;50.362;7.568;2023-06-24T03:57:42;2.13;;;2.00;;
51475;SDS011;37554;50.362;7.568;2023-06-24T04:00:08;2.40;;;2.20;;
51475;SDS011;37554;50.362;7.568;2023-06-24T04:02:42;2.40;;;2.08;;
51475;SDS011;37554;50.362;7.568;2023-06-24T04:05:08;2.35;;;1.80;;
51475;SDS011;37554;50.362;7.568;2023-06-24T04:07:34;2.65;;;2.35;;
51475;SDS011;37554;50.362;7.568;2023-06-24T04:10:02;2.08;;;1.98;;
51475;SDS011;37554;50.362;7.568;2023-06-24T04:12:29;2.17;;;2.00;;
51475;SDS011;37554;50.362;7.568;2023-06-24T04:14:54;2.50;;;2.28;;
51475;SDS011;37554;50.362;7.568;2023-06-24T04:17:20;4.20;;;1.80;;
51475;SDS011;37554;50.362;7.568;2023-06-24T04:19:46;2.50;;;2.03;;
51475;SDS011;37554;50.362;7.568;2023-06-24T04:22:11;2.15;;;1.95;;
51475;SDS011;37554;50.362;7.568;2023-06-24T04:24:37;3.30;;;2.10;;
51475;SDS011;37554;50.362;7.568;2023-06-24T04:27:03;2.85;;;2.15;;
51475;SDS011;37554;50.362;7.568;2023-06-24T04:29:29;3.08;;;2.40;;
51475;SDS011;37554;50.362;7.568;2023-06-24T04:31:54;2.50;;;2.30;;
51475;SDS011;37554;50.362;7.568;2023-06-24T04:34:20;2.88;;;1.90;;
51475;SDS011;37554;50.362;7.568;2023-06-24T04:36:45;3.53;;;2.10;;
51475;SDS011;37554;50.362;7.568;2023-06-24T04:39:11;2.25;;;2.05;;
51475;SDS011;37554;50.362;7.568;2023-06-24T04:41:37;2.13;;;1.90;;
51475;SDS011;37554;50.362;7.568;2023-06-24T04:44:02;3.15;;;2.10;;
51475;SDS011;37554;50.362;7.568;2023-06-24T04:46:28;2.30;;;2.10;;
51475;SDS011;37554;50.362;7.568;2023-06-24T04:48:54;2.45;;;1.98;;
51475;SDS011;37554;50.362;7.568;2023-06-24T04:51:20;3.10;;;2.03;;
51475;SDS011;37554;50.362;7.568;2023-06-24T04:53:45;1.98;;;1.80;;
51475;SDS011;37554;50.362;7.568;2023-06-24T04:56:11;2.65;;;1.88;;
51475;SDS011;37554;50.362;7.568;2023-06-24T04:58:36;3.58;;;2.33;;
51475;SDS011;37554;50.362;7.568;2023-06-24T05:01:02;2.05;;;1.95;;
51475;SDS011;37554;50.362;7.568;2023-06-24T05:03:27;2.00;;;1.80;;
51475;SDS011;37554;50.362;7.568;2023-06-24T05:05:53;2.67;;;2.17;;
51475;SDS011;37554;50.362;7.568;2023-06-24T05:08:19;2.10;;;1.90;;
51475;SDS011;37554;50.362;7.568;2023-06-24T05:10:44;2.88;;;1.90;;
51475;SDS011;37554;50.362;7.568;2023-06-24T05:13:10;2.10;;;1.90;;
51475;SDS011;37554;50.362;7.568;2023-06-24T05:15:35;3.05;;;2.20;;
51475;SDS011;37554;50.362;7.568;2023-06-24T05:18:01;3.30;;;2.30;;
51475;SDS011;37554;50.362;7.568;2023-06-24T05:20:27;2.42;;;2.10;;
51475;SDS011;37554;50.362;7.568;2023-06-24T05:22:52;2.58;;;2.10;;
51475;SDS011;37554;50.362;7.568;2023-06-24T05:25:19;2.70;;;2.33;;
51475;SDS011;37554;50.362;7.568;2023-06-24T05:27:44;2.33;;;1.83;;
51475;SDS011;37554;50.362;7.568;2023-06-24T05:30:10;1.77;;;1.67;;
51475;SDS011;37554;50.362;7.568;2023-06-24T05:32:37;2.92;;;2.22;;
51475;SDS011;37554;50.362;7.568;2023-06-24T05:35:03;2.83;;;2.17;;
51475;SDS011;37554;50.362;7.568;2023-06-24T05:37:29;2.45;;;2.00;;
51475;SDS011;37554;50.362;7.568;2023-06-24T05:39:55;3.33;;;2.20;;
51475;SDS011;37554;50.362;7.568;2023-06-24T05:42:22;2.40;;;2.08;;
51475;SDS011;37554;50.362;7.568;2023-06-24T05:44:48;2.30;;;2.10;;
51475;SDS011;37554;50.362;7.568;2023-06-24T05:47:14;2.58;;;2.33;;
51475;SDS011;37554;50.362;7.568;2023-06-24T05:49:39;2.33;;;2.13;;
51475;SDS011;37554;50.362;7.568;2023-06-24T05:52:05;2.20;;;1.85;;
51475;SDS011;37554;50.362;7.568;2023-06-24T05:54:31;4.82;;;1.98;;
51475;SDS011;37554;50.362;7.568;2023-06-24T05:56:56;1.92;;;1.83;;
51475;SDS011;37554;50.362;7.568;2023-06-24T05:59:22;2.50;;;2.30;;
51475;SDS011;37554;50.362;7.568;2023-06-24T06:01:48;2.63;;;2.00;;
51475;SDS011;37554;50.362;7.568;2023-06-24T06:04:13;3.28;;;2.13;;
51475;SDS011;37554;50.362;7.568;2023-06-24T06:06:39;3.15;;;2.10;;
51475;SDS011;37554;50.362;7.568;2023-06-24T06:09:05;3.47;;;2.47;;
51475;SDS011;37554;50.362;7.568;2023-06-24T06:11:31;1.90;;;1.80;;
51475;SDS011;37554;50.362;7.568;2023-06-24T06:13:57;3.47;;;2.15;;
51475;SDS011;37554;50.362;7.568;2023-06-24T06:16:22;2.97;;;1.92;;
51475;SDS011;37554;50.362;7.568;2023-06-24T06:18:48;2.25;;;1.98;;
51475;SDS011;37554;50.362;7.568;2023-06-24T06:21:14;3.50;;;2.00;;
51475;SDS011;37554;50.362;7.568;2023-06-24T06:23:40;2.20;;;1.98;;
51475;SDS011;37554;50.362;7.568;2023-06-24T06:26:05;2.08;;;1.88;;
51475;SDS011;37554;50.362;7.568;2023-06-24T06:28:31;2.30;;;2.08;;
51475;SDS011;37554;50.362;7.568;2023-06-24T06:30:56;2.22;;;1.80;;
51475;SDS011;37554;50.362;7.568;2023-06-24T06:33:22;3.53;;;2.25;;
51475;SDS011;37554;50.362;7.568;2023-06-24T06:35:48;4.00;;;2.25;;
51475;SDS011;37554;50.362;7.568;2023-06-24T06:38:13;2.35;;;2.17;;
51475;SDS011;37554;50.362;7.568;2023-06-24T06:40:39;1.85;;;1.75;;
51475;SDS011;37554;50.362;7.568;2023-06-24T06:43:05;1.90;;;1.80;;
51475;SDS011;37554;50.362;7.568;2023-06-24T06:45:31;2.17;;;1.98;;
51475;SDS011;37554;50.362;7.568;2023-06-24T06:47:56;2.25;;;2.05;;
51475;SDS011;37554;50.362;7.568;2023-06-24T06:50:22;2.38;;;2.15;;
51475;SDS011;37554;50.362;7.568;2023-06-24T06:52:48;3.63;;;1.95;;
51475;SDS011;37554;50.362;7.568;2023-06-24T06:55:13;2.50;;;2.30;;
51475;SDS011;37554;50.362;7.568;2023-06-24T06:57:39;1.98;;;1.88;;
51475;SDS011;37554;50.362;7.568;2023-06-24T07:00:05;2.45;;;2.00;;
51475;SDS011;37554;50.362;7.568;2023-06-24T07:02:31;2.38;;;2.17;;
51475;SDS011;37554;50.362;7.568;2023-06-24T07:04:57;2.30;;;2.10;;
51475;SDS011;37554;50.362;7.568;2023-06-24T07:07:24;3.25;;;2.15;;
51475;SDS011;37554;50.362;7.568;2023-06-24T07:09:49;3.88;;;2.30;;
51475;SDS011;37554;50.362;7.568;2023-06-24T07:12:15;2.22;;;2.10;;
51475;SDS011;37554;50.362;7.568;2023-06-24T07:14:41;2.30;;;2.10;;
51475;SDS011;37554;50.362;7.568;2023-06-24T07:17:07;2.20;;;2.00;;
51475;SDS011;37554;50.362;7.568;2023-06-24T07:19:33;2.22;;;2.03;;
51475;SDS011;37554;50.362;7.568;2023-06-24T07:21:58;2.35;;;2.15;;
51475;SDS011;37554;50.362;7.568;2023-06-24T07:24:24;2.10;;;1.95;;
51475;SDS011;37554;50.362;7.568;2023-06-24T07:26:49;2.30;;;2.10;;
51475;SDS011;37554;50.362;7.568;2023-06-24T07:29:15;3.28;;;2.05;;
51475;SDS011;37554;50.362;7.568;2023-06-24T07:31:41;2.17;;;2.05;;
51475;SDS011;37554;50.362;7.568;2023-06-24T07:34:06;2.35;;;2.15;;
51475;SDS011;37554;50.362;7.568;2023-06-24T07:36:32;2.47;;;2.28;;
51475;SDS011;37554;50.362;7.568;2023-06-24T07:38:58;2.03;;;1.90;;
51475;SDS011;37554;50.362;7.568;2023-06-24T07:41:23;3.30;;;2.17;;
51475;SDS011;37554;50.362;7.568;2023-06-24T07:43:49;3.00;;;1.70;;
51475;SDS011;37554;50.362;7.568;2023-06-24T07:46:16;2.08;;;1.85;;
51475;SDS011;37554;50.362;7.568;2023-06-24T07:48:41;1.80;;;1.70;;
51475;SDS011;37554;50.362;7.568;2023-06-24T07:51:07;2.40;;;2.20;;
51475;SDS011;37554;50.362;7.568;2023-06-24T07:53:33;2.20;;;2.00;;
51475;SDS011;37554;50.362;7.568;2023-06-24T07:55:59;1.70;;;1.60;;
51475;SDS011;37554;50.362;7.568;2023-06-24T07:58:25;2.08;;;1.88;;
51475;SDS011;37554;50.362;7.568;2023-06-24T08:00:50;1.73;;;1.63;;
51475;SDS011;37554;50.362;7.568;2023-06-24T08:03:16;2.72;;;1.90;;
51475;SDS011;37554;50.362;7.568;2023-06-24T08:05:41;2.08;;;1.90;;
51475;SDS011;37554;50.362;7.568;2023-06-24T08:08:08;1.90;;;1.70;;
51475;SDS011;37554;50.362;7.568;2023-06-24T08:10:33;2.03;;;1.92;;
51475;SDS011;37554;50.362;7.568;2023-06-24T08:12:59;2.67;;;1.75;;
51475;SDS011;37554;50.362;7.568;2023-06-24T08:15:24;2.38;;;1.92;;
51475;SDS011;37554;50.362;7.568;2023-06-24T08:17:51;2.90;;;2.00;;
51475;SDS011;37554;50.362;7.568;2023-06-24T08:20:17;2.88;;;2.05;;
51475;SDS011;37554;50.362;7.568;2023-06-24T08:22:43;2.00;;;1.80;;
51475;SDS011;37554;50.362;7.568;2023-06-24T08:25:08;1.83;;;1.73;;
51475;SDS011;37554;50.362;7.568;2023-06-24T08:27:34;2.00;;;1.90;;
51475;SDS011;37554;50.362;7.568;2023-06-24T08:30:00;1.85;;;1.75;;
51475;SDS011;37554;50.362;7.568;2023-06-24T08:32:25;1.80;;;1.70;;
51475;SDS011;37554;50.362;7.568;2023-06-24T08:34:51;2.20;;;2.00;;
51475;SDS011;37554;50.362;7.568;2023-06-24T08:37:17;1.75;;;1.65;;
51475;SDS011;37554;50.362;7.568;2023-06-24T08:39:42;1.95;;;1.75;;
51475;SDS011;37554;50.362;7.568;2023-06-24T08:42:08;2.72;;;1.73;;
51475;SDS011;37554;50.362;7.568;2023-06-24T08:44:33;1.92;;;1.58;;
51475;SDS011;37554;50.362;7.568;2023-06-24T08:46:59;1.63;;;1.50;;
51475;SDS011;37554;50.362;7.568;2023-06-24T08:49:28;1.40;;;1.30;;
51475;SDS011;37554;50.362;7.568;2023-06-24T08:54:27;1.40;;;1.30;;
51475;SDS011;37554;50.362;7.568;2023-06-24T08:56:54;1.50;;;1.40;;
51475;SDS011;37554;50.362;7.568;2023-06-24T08:59:20;1.60;;;1.50;;
51475;SDS011;37554;50.362;7.568;2023-06-24T09:01:46;1.60;;;1.50;;
51475;SDS011;37554;50.362;7.568;2023-06-24T09:04:12;1.98;;;1.60;;
51475;SDS011;37554;50.362;7.568;2023-06-24T09:06:38;1.77;;;1.67;;
51475;SDS011;37554;50.362;7.568;2023-06-24T09:09:04;2.58;;;1.48;;
51475;SDS011;37554;50.362;7.568;2023-06-24T09:11:30;1.70;;;1.48;;
51475;SDS011;37554;50.362;7.568;2023-06-24T09:14:00;1.65;;;1.48;;
51475;SDS011;37554;50.362;7.568;2023-06-24T09:16:26;1.55;;;1.40;;
51475;SDS011;37554;50.362;7.568;2023-06-24T09:18:53;1.23;;;1.13;;
51475;SDS011;37554;50.362;7.568;2023-06-24T09:21:26;1.45;;;1.35;;
51475;SDS011;37554;50.362;7.568;2023-06-24T09:23:53;1.33;;;1.23;;
51475;SDS011;37554;50.362;7.568;2023-06-24T09:26:22;1.50;;;1.40;;
51475;SDS011;37554;50.362;7.568;2023-06-24T09:28:52;1.40;;;1.30;;
51475;SDS011;37554;50.362;7.568;2023-06-24T09:31:19;1.45;;;1.35;;
51475;SDS011;37554;50.362;7.568;2023-06-24T09:33:45;1.20;;;1.10;;
51475;SDS011;37554;50.362;7.568;2023-06-24T09:36:15;1.50;;;1.40;;
51475;SDS011;37554;50.362;7.568;2023-06-24T09:38:43;1.60;;;1.50;;
51475;SDS011;37554;50.362;7.568;2023-06-24T09:41:09;1.35;;;1.25;;
51475;SDS011;37554;50.362;7.568;2023-06-24T09:43:36;1.30;;;1.20;;
51475;SDS011;37554;50.362;7.568;2023-06-24T09:46:04;1.33;;;1.23;;
51475;SDS011;37554;50.362;7.568;2023-06-24T09:48:30;1.10;;;1.08;;
51475;SDS011;37554;50.362;7.568;2023-06-24T09:50:57;1.20;;;1.10;;
51475;SDS011;37554;50.362;7.568;2023-06-24T09:53:26;1.40;;;1.23;;
51475;SDS011;37554;50.362;7.568;2023-06-24T09:55:56;1.20;;;1.10;;
51475;SDS011;37554;50.362;7.568;2023-06-24T09:58:25;1.10;;;0.95;;
51475;SDS011;37554;50.362;7.568;2023-06-24T10:00:51;0.95;;;0.90;;
51475;SDS011;37554;50.362;7.568;2023-06-24T10:03:17;1.17;;;1.08;;
51475;SDS011;37554;50.362;7.568;2023-06-24T10:05:44;1.10;;;1.02;;
51475;SDS011;37554;50.362;7.568;2023-06-24T10:08:10;1.55;;;1.23;;
51475;SDS011;37554;50.362;7.568;2023-06-24T10:10:38;1.38;;;1.20;;
51475;SDS011;37554;50.362;7.568;2023-06-24T10:13:04;1.38;;;1.20;;
51475;SDS011;37554;50.362;7.568;2023-06-24T10:15:31;1.40;;;1.30;;
51475;SDS011;37554;50.362;7.568;2023-06-24T10:18:00;1.05;;;0.95;;
51475;SDS011;37554;50.362;7.568;2023-06-24T10:20:28;1.45;;;1.35;;
51475;SDS011;37554;50.362;7.568;2023-06-24T10:22:54;1.38;;;1.27;;
51475;SDS011;37554;50.362;7.568;2023-06-24T10:25:20;1.38;;;1.27;;
51475;SDS011;37554;50.362;7.568;2023-06-24T10:27:47;3.08;;;1.10;;
51475;SDS011;37554;50.362;7.568;2023-06-24T10:30:19;1.13;;;1.02;;
51475;SDS011;37554;50.362;7.568;2023-06-24T10:32:50;1.30;;;1.20;;
51475;SDS011;37554;50.362;7.568;2023-06-24T10:37:53;1.00;;;1.00;;
51475;SDS011;37554;50.362;7.568;2023-06-24T10:40:33;1.58;;;1.00;;
51475;SDS011;37554;50.362;7.568;2023-06-24T10:45:52;0.98;;;0.98;;
51475;SDS011;37554;50.362;7.568;2023-06-24T10:48:20;2.08;;;1.00;;
51475;SDS011;37554;50.362;7.568;2023-06-24T10:50:46;1.30;;;1.20;;
51475;SDS011;37554;50.362;7.568;2023-06-24T10:53:13;1.40;;;1.30;;
51475;SDS011;37554;50.362;7.568;2023-06-24T10:55:39;1.30;;;1.13;;
51475;SDS011;37554;50.362;7.568;2023-06-24T10:58:08;1.00;;;1.00;;
51475;SDS011;37554;50.362;7.568;2023-06-24T11:00:35;1.00;;;1.00;;
51475;SDS011;37554;50.362;7.568;2023-06-24T11:03:10;1.20;;;1.10;;
51475;SDS011;37554;50.362;7.568;2023-06-24T11:05:40;1.13;;;0.85;;
51475;SDS011;37554;50.362;7.568;2023-06-24T11:08:07;1.92;;;1.10;;
51475;SDS011;37554;50.362;7.568;2023-06-24T11:10:33;1.10;;;1.00;;
51475;SDS011;37554;50.362;7.568;2023-06-24T11:13:07;1.63;;;0.90;;
51475;SDS011;37554;50.362;7.568;2023-06-24T11:15:33;1.13;;;1.02;;
51475;SDS011;37554;50.362;7.568;2023-06-24T11:18:01;0.60;;;0.60;;
51475;SDS011;37554;50.362;7.568;2023-06-24T11:20:28;1.25;;;1.15;;
51475;SDS011;37554;50.362;7.568;2023-06-24T11:22:54;1.20;;;1.10;;
51475;SDS011;37554;50.362;7.568;2023-06-24T11:25:20;1.02;;;0.93;;
51475;SDS011;37554;50.362;7.568;2023-06-24T11:27:46;0.90;;;0.80;;
51475;SDS011;37554;50.362;7.568;2023-06-24T11:30:12;0.93;;;0.93;;
51475;SDS011;37554;50.362;7.568;2023-06-24T11:32:39;1.05;;;0.93;;
51475;SDS011;37554;50.362;7.568;2023-06-24T11:35:07;1.00;;;0.90;;
51475;SDS011;37554;50.362;7.568;2023-06-24T11:37:34;1.13;;;1.00;;
51475;SDS011;37554;50.362;7.568;2023-06-24T11:40:01;0.90;;;0.90;;
51475;SDS011;37554;50.362;7.568;2023-06-24T11:42:31;1.13;;;1.00;;
51475;SDS011;37554;50.362;7.568;2023-06-24T11:45:04;1.02;;;0.90;;
51475;SDS011;37554;50.362;7.568;2023-06-24T11:47:32;1.10;;;0.95;;
51475;SDS011;37554;50.362;7.568;2023-06-24T11:50:01;1.10;;;1.00;;
51475;SDS011;37554;50.362;7.568;2023-06-24T11:55:00;1.00;;;0.90;;
51475;SDS011;37554;50.362;7.568;2023-06-24T12:02:57;0.90;;;0.90;;
51475;SDS011;37554;50.362;7.568;2023-06-24T12:05:30;1.17;;;1.00;;
51475;SDS011;37554;50.362;7.568;2023-06-24T12:10:26;0.90;;;0.80;;
51475;SDS011;37554;50.362;7.568;2023-06-24T12:12:54;0.90;;;0.90;;
51475;SDS011;37554;50.362;7.568;2023-06-24T12:15:21;1.08;;;1.00;;
51475;SDS011;37554;50.362;7.568;2023-06-24T12:17:47;0.80;;;0.80;;
51475;SDS011;37554;50.362;7.568;2023-06-24T12:20:13;0.98;;;0.88;;
51475;SDS011;37554;50.362;7.568;2023-06-24T12:22:40;0.88;;;0.88;;
51475;SDS011;37554;50.362;7.568;2023-06-24T12:25:06;1.30;;;1.20;;
51475;SDS011;37554;50.362;7.568;2023-06-24T12:27:32;0.90;;;0.85;;
51475;SDS011;37554;50.362;7.568;2023-06-24T12:29:59;0.93;;;0.93;;
51475;SDS011;37554;50.362;7.568;2023-06-24T12:32:25;1.80;;;0.70;;
51475;SDS011;37554;50.362;7.568;2023-06-24T12:34:51;1.85;;;1.10;;
51475;SDS011;37554;50.362;7.568;2023-06-24T12:37:17;2.25;;;0.90;;
51475;SDS011;37554;50.362;7.568;2023-06-24T12:39:44;1.20;;;1.10;;
51475;SDS011;37554;50.362;7.568;2023-06-24T12:42:10;1.40;;;1.17;;
51475;SDS011;37554;50.362;7.568;2023-06-24T12:44:35;5.50;;;0.90;;
51475;SDS011;37554;50.362;7.568;2023-06-24T12:47:01;1.20;;;1.10;;
51475;SDS011;37554;50.362;7.568;2023-06-24T12:49:27;1.23;;;1.13;;
51475;SDS011;37554;50.362;7.568;2023-06-24T12:51:53;1.00;;;1.00;;
51475;SDS011;37554;50.362;7.568;2023-06-24T12:54:18;1.08;;;0.98;;
51475;SDS011;37554;50.362;7.568;2023-06-24T12:56:44;1.00;;;0.90;;
51475;SDS011;37554;50.362;7.568;2023-06-24T12:59:10;1.10;;;0.90;;
51475;SDS011;37554;50.362;7.568;2023-06-24T13:01:35;0.85;;;0.85;;
51475;SDS011;37554;50.362;7.568;2023-06-24T13:04:01;0.90;;;0.90;;
51475;SDS011;37554;50.362;7.568;2023-06-24T13:06:26;0.90;;;0.90;;
51475;SDS011;37554;50.362;7.568;2023-06-24T13:08:52;1.10;;;1.05;;
51475;SDS011;37554;50.362;7.568;2023-06-24T13:11:18;3.00;;;0.93;;
51475;SDS011;37554;50.362;7.568;2023-06-24T13:13:43;1.10;;;1.00;;
51475;SDS011;37554;50.362;7.568;2023-06-24T13:16:09;0.90;;;0.90;;
51475;SDS011;37554;50.362;7.568;2023-06-24T13:18:35;1.50;;;1.08;;
51475;SDS011;37554;50.362;7.568;2023-06-24T13:21:00;0.98;;;0.90;;
51475;SDS011;37554;50.362;7.568;2023-06-24T13:23:26;1.13;;;1.02;;
51475;SDS011;37554;50.362;7.568;2023-06-24T13:25:51;0.90;;;0.90;;
51475;SDS011;37554;50.362;7.568;2023-06-24T13:28:17;0.90;;;0.90;;
51475;SDS011;37554;50.362;7.568;2023-06-24T13:30:42;1.02;;;0.93;;
51475;SDS011;37554;50.362;7.568;2023-06-24T13:33:08;1.17;;;0.93;;
51475;SDS011;37554;50.362;7.568;2023-06-24T13:35:34;1.83;;;1.00;;
51475;SDS011;37554;50.362;7.568;2023-06-24T13:37:59;0.93;;;0.90;;
51475;SDS011;37554;50.362;7.568;2023-06-24T13:40:25;1.02;;;0.95;;
51475;SDS011;37554;50.362;7.568;2023-06-24T13:42:51;1.10;;;1.00;;
51475;SDS011;37554;50.362;7.568;2023-06-24T13:45:17;0.80;;;0.80;;
51475;SDS011;37554;50.362;7.568;2023-06-24T13:47:42;1.20;;;1.10;;
51475;SDS011;37554;50.362;7.568;2023-06-24T13:50:08;1.73;;;1.00;;
51475;SDS011;37554;50.362;7.568;2023-06-24T13:52:34;0.95;;;0.95;;
51475;SDS011;37554;50.362;7.568;2023-06-24T13:55:00;1.10;;;1.00;;
51475;SDS011;37554;50.362;7.568;2023-06-24T13:57:25;1.23;;;1.00;;
51475;SDS011;37554;50.362;7.568;2023-06-24T13:59:51;0.98;;;0.93;;
51475;SDS011;37554;50.362;7.568;2023-06-24T14:02:16;1.20;;;1.10;;
51475;SDS011;37554;50.362;7.568;2023-06-24T14:04:43;0.82;;;0.82;;
51475;SDS011;37554;50.362;7.568;2023-06-24T14:07:08;0.80;;;0.80;;
51475;SDS011;37554;50.362;7.568;2023-06-24T14:09:34;1.35;;;0.80;;
51475;SDS011;37554;50.362;7.568;2023-06-24T14:12:00;0.98;;;0.90;;
51475;SDS011;37554;50.362;7.568;2023-06-24T14:14:26;1.13;;;1.02;;
51475;SDS011;37554;50.362;7.568;2023-06-24T14:16:51;1.08;;;1.02;;
51475;SDS011;37554;50.362;7.568;2023-06-24T14:19:17;0.95;;;0.95;;
51475;SDS011;37554;50.362;7.568;2023-06-24T14:21:43;0.90;;;0.90;;
51475;SDS011;37554;50.362;7.568;2023-06-24T14:24:08;1.15;;;0.73;;
51475;SDS011;37554;50.362;7.568;2023-06-24T14:26:36;1.10;;;0.93;;
51475;SDS011;37554;50.362;7.568;2023-06-24T14:29:02;1.10;;;0.93;;
51475;SDS011;37554;50.362;7.568;2023-06-24T14:31:28;0.70;;;0.70;;
51475;SDS011;37554;50.362;7.568;2023-06-24T14:33:54;0.80;;;0.80;;
51475;SDS011;37554;50.362;7.568;2023-06-24T14:36:19;1.20;;;0.88;;
51475;SDS011;37554;50.362;7.568;2023-06-24T14:38:45;0.85;;;0.85;;
51475;SDS011;37554;50.362;7.568;2023-06-24T14:41:11;0.85;;;0.82;;
51475;SDS011;37554;50.362;7.568;2023-06-24T14:43:36;1.00;;;0.90;;
51475;SDS011;37554;50.362;7.568;2023-06-24T14:46:02;1.00;;;1.00;;
51475;SDS011;37554;50.362;7.568;2023-06-24T14:48:27;1.20;;;1.10;;
51475;SDS011;37554;50.362;7.568;2023-06-24T14:50:53;0.90;;;0.90;;
51475;SDS011;37554;50.362;7.568;2023-06-24T14:53:19;1.00;;;0.90;;
51475;SDS011;37554;50.362;7.568;2023-06-24T14:55:45;0.75;;;0.75;;
51475;SDS011;37554;50.362;7.568;2023-06-24T14:58:11;1.10;;;0.98;;
51475;SDS011;37554;50.362;7.568;2023-06-24T15:00:37;1.08;;;1.00;;
51475;SDS011;37554;50.362;7.568;2023-06-24T15:03:02;1.02;;;1.00;;
51475;SDS011;37554;50.362;7.568;2023-06-24T15:05:28;1.10;;;1.00;;
51475;SDS011;37554;50.362;7.568;2023-06-24T15:07:54;1.05;;;1.02;;
51475;SDS011;37554;50.362;7.568;2023-06-24T15:10:19;1.00;;;1.00;;
51475;SDS011;37554;50.362;7.568;2023-06-24T15:12:45;1.38;;;1.27;;
51475;SDS011;37554;50.362;7.568;2023-06-24T15:15:11;0.90;;;0.90;;
51475;SDS011;37554;50.362;7.568;2023-06-24T15:17:36;0.90;;;0.90;;
51475;SDS011;37554;50.362;7.568;2023-06-24T15:20:08;1.55;;;1.10;;